createdAt,value
2022-09-24T00:00:52.534Z,4.20
2022-09-24T00:03:37.674Z,4.88
2022-09-24T00:06:24.129Z,5.28
2022-09-24T00:09:09.785Z,4.20
2022-09-24T00:11:55.514Z,5.05
2022-09-24T00:14:41.010Z,5.80
2022-09-24T00:17:26.496Z,4.90
2022-09-24T00:20:12.284Z,4.00
2022-09-24T00:22:57.788Z,4.25
2022-09-24T00:26:03.846Z,4.72
2022-09-24T00:28:52.923Z,4.43
2022-09-24T00:31:38.842Z,4.72
2022-09-24T00:34:24.560Z,4.60
2022-09-24T00:37:11.097Z,4.45
2022-09-24T00:39:56.964Z,4.93
2022-09-24T00:42:42.214Z,5.35
2022-09-24T00:45:31.256Z,4.57
2022-09-24T00:48:16.787Z,4.30
2022-09-24T00:51:04.683Z,3.63
2022-09-24T00:53:55.318Z,4.15
2022-09-24T00:56:43.879Z,4.70
2022-09-24T00:59:30.491Z,4.65
2022-09-24T01:02:15.884Z,4.78
2022-09-24T01:05:01.606Z,4.68
2022-09-24T01:07:48.797Z,4.57
2022-09-24T01:11:11.801Z,4.50
2022-09-24T01:14:11.557Z,4.78
2022-09-24T01:17:29.490Z,4.50
2022-09-24T01:20:33.111Z,4.10
2022-09-24T01:23:35.122Z,5.45
2022-09-24T01:26:32.363Z,4.25
2022-09-24T01:29:20.441Z,4.90
2022-09-24T01:32:11.792Z,4.05
2022-09-24T01:35:21.573Z,4.85
2022-09-24T01:38:14.839Z,4.32
2022-09-24T01:41:03.383Z,4.82
2022-09-24T01:43:49.679Z,4.78
2022-09-24T01:46:39.518Z,4.53
2022-09-24T01:49:25.061Z,4.55
2022-09-24T01:52:16.179Z,4.32
2022-09-24T01:55:06.157Z,4.63
2022-09-24T01:57:59.731Z,3.80
2022-09-24T02:00:49.819Z,4.45
2022-09-24T02:03:43.585Z,3.67
2022-09-24T02:06:38.578Z,3.72
2022-09-24T02:09:34.459Z,4.55
2022-09-24T02:12:29.791Z,4.15
2022-09-24T02:15:28.851Z,5.70
2022-09-24T02:18:21.171Z,5.38
2022-09-24T02:21:11.057Z,4.28
2022-09-24T02:24:04.192Z,3.42
2022-09-24T02:26:50.910Z,4.45
2022-09-24T02:29:36.960Z,4.05
2022-09-24T02:32:25.970Z,4.07
2022-09-24T02:35:13.178Z,4.38
2022-09-24T02:38:02.770Z,4.50
2022-09-24T02:40:51.851Z,4.57
2022-09-24T02:43:37.040Z,4.15
2022-09-24T02:46:22.578Z,4.85
2022-09-24T02:49:08.871Z,4.55
2022-09-24T02:51:54.469Z,4.53
2022-09-24T02:54:40.270Z,4.63
2022-09-24T02:57:25.733Z,4.43
2022-09-24T03:00:13.168Z,4.28
2022-09-24T03:02:59.285Z,4.75
2022-09-24T03:05:45.974Z,3.65
2022-09-24T03:08:32.422Z,4.03
2022-09-24T03:11:18.967Z,4.03
2022-09-24T03:14:04.881Z,4.17
2022-09-24T03:16:50.716Z,4.60
2022-09-24T03:19:36.127Z,4.40
2022-09-24T03:22:21.858Z,4.50
2022-09-24T03:25:07.891Z,4.40
2022-09-24T03:27:53.545Z,3.92
2022-09-24T03:30:59.481Z,3.75
2022-09-24T03:33:49.126Z,4.15
2022-09-24T03:36:34.836Z,4.32
2022-09-24T03:39:20.374Z,4.10
2022-09-24T03:42:05.743Z,3.88
2022-09-24T03:44:54.144Z,4.47
2022-09-24T03:47:40.548Z,4.18
2022-09-24T03:50:26.179Z,3.63
2022-09-24T03:53:12.216Z,3.83
2022-09-24T03:55:58.239Z,4.47
2022-09-24T03:58:48.219Z,4.22
2022-09-24T04:01:35.461Z,4.63
2022-09-24T04:04:21.229Z,4.47
2022-09-24T04:07:06.626Z,3.67
2022-09-24T04:09:52.080Z,4.07
2022-09-24T04:12:37.711Z,4.20
2022-09-24T04:15:23.204Z,4.10
2022-09-24T04:18:09.489Z,3.95
2022-09-24T04:21:01.723Z,3.95
2022-09-24T04:23:47.605Z,3.08
2022-09-24T04:26:33.240Z,3.80
2022-09-24T04:29:18.684Z,3.03
2022-09-24T04:32:04.371Z,3.80
2022-09-24T04:34:49.746Z,3.72
2022-09-24T04:37:36.122Z,4.32
2022-09-24T04:40:21.779Z,4.63
2022-09-24T04:43:07.505Z,3.47
2022-09-24T04:45:53.655Z,3.22
2022-09-24T04:48:39.764Z,2.63
2022-09-24T04:51:25.064Z,3.85
2022-09-24T04:54:10.933Z,3.40
2022-09-24T04:56:56.648Z,2.60
2022-09-24T04:59:43.018Z,3.40
2022-09-24T05:02:28.641Z,4.13
2022-09-24T05:05:14.894Z,3.67
2022-09-24T05:08:01.596Z,4.30
2022-09-24T05:10:47.542Z,4.03
2022-09-24T05:13:33.050Z,4.45
2022-09-24T05:16:18.593Z,3.58
2022-09-24T05:19:05.066Z,3.72
2022-09-24T05:21:50.543Z,3.13
2022-09-24T05:24:36.169Z,4.07
2022-09-24T05:27:23.296Z,7.60
2022-09-24T05:30:09.394Z,4.75
2022-09-24T05:32:55.036Z,4.10
2022-09-24T05:35:40.392Z,4.47
2022-09-24T05:38:26.122Z,6.53
2022-09-24T05:41:11.994Z,14.13
2022-09-24T05:43:59.785Z,9.95
2022-09-24T05:46:45.434Z,8.50
2022-09-24T05:49:30.614Z,7.97
2022-09-24T05:52:16.226Z,8.40
2022-09-24T05:55:01.768Z,13.80
2022-09-24T05:57:47.115Z,15.65
2022-09-24T06:00:33.362Z,11.38
2022-09-24T06:03:20.235Z,12.40
2022-09-24T06:06:06.586Z,9.93
2022-09-24T06:08:52.789Z,9.48
2022-09-24T06:11:40.883Z,20.52
2022-09-24T06:14:26.684Z,20.10
2022-09-24T06:17:12.465Z,16.75
2022-09-24T06:19:58.106Z,19.80
2022-09-24T06:22:43.790Z,13.65
2022-09-24T06:25:31.148Z,9.95
2022-09-24T06:28:17.067Z,9.93
2022-09-24T06:31:03.618Z,6.65
2022-09-24T06:33:49.279Z,7.13
2022-09-24T06:36:35.804Z,5.47
2022-09-24T06:39:23.918Z,5.55
2022-09-24T06:42:09.300Z,5.35
2022-09-24T06:44:54.694Z,5.05
2022-09-24T06:47:40.271Z,5.70
2022-09-24T06:50:27.770Z,5.53
2022-09-24T06:53:13.764Z,6.22
2022-09-24T06:55:59.866Z,5.43
2022-09-24T06:58:46.085Z,6.05
2022-09-24T07:01:31.708Z,5.28
2022-09-24T07:04:17.796Z,6.93
2022-09-24T07:07:25.945Z,6.38
2022-09-24T07:10:11.231Z,9.25
2022-09-24T07:12:57.132Z,10.90
2022-09-24T07:15:43.424Z,14.98
2022-09-24T07:18:28.957Z,7.85
2022-09-24T07:21:14.439Z,6.97
2022-09-24T07:23:59.816Z,8.73
2022-09-24T07:26:45.264Z,8.73
2022-09-24T07:29:30.791Z,9.13
2022-09-24T07:32:17.503Z,9.15
2022-09-24T07:35:03.350Z,9.57
2022-09-24T07:37:48.554Z,8.70
2022-09-24T07:40:34.668Z,8.40
2022-09-24T07:43:21.312Z,9.18
2022-09-24T07:46:07.320Z,8.00
2022-09-24T07:48:56.079Z,8.32
2022-09-24T07:51:42.175Z,7.30
2022-09-24T07:54:27.406Z,8.45
2022-09-24T07:57:13.720Z,8.77
2022-09-24T07:59:59.285Z,11.55
2022-09-24T08:02:45.882Z,10.13
2022-09-24T08:05:33.130Z,10.23
2022-09-24T08:08:20.666Z,11.63
2022-09-24T08:11:07.415Z,10.35
2022-09-24T08:13:53.024Z,10.65
2022-09-24T08:16:40.602Z,9.55
2022-09-24T08:19:25.811Z,7.30
2022-09-24T08:22:11.359Z,6.38
2022-09-24T08:24:57.974Z,6.75
2022-09-24T08:27:43.712Z,5.50
2022-09-24T08:30:29.826Z,5.15
2022-09-24T08:33:16.335Z,4.80
2022-09-24T08:36:04.030Z,4.65
2022-09-24T08:38:54.859Z,5.75
2022-09-24T08:41:53.872Z,4.13
2022-09-24T08:45:00.754Z,4.97
2022-09-24T08:47:55.128Z,4.95
2022-09-24T08:50:50.510Z,4.38
2022-09-24T08:53:57.586Z,3.97
2022-09-24T08:56:46.083Z,3.63
2022-09-24T08:59:37.774Z,3.05
2022-09-24T09:02:40.562Z,2.70
2022-09-24T09:05:50.903Z,2.83
2022-09-24T09:09:05.761Z,2.85
2022-09-24T09:12:01.074Z,3.13
2022-09-24T09:15:11.235Z,3.55
2022-09-24T09:18:01.490Z,4.60
2022-09-24T09:20:49.210Z,3.67
2022-09-24T09:29:24.114Z,2.90
2022-09-24T09:32:24.407Z,2.63
2022-09-24T09:35:31.890Z,4.13
2022-09-24T09:38:44.366Z,4.13
2022-09-24T09:41:59.224Z,4.43
2022-09-24T09:44:46.139Z,3.97
2022-09-24T09:47:49.092Z,4.05
2022-09-24T09:50:51.938Z,3.75
2022-09-24T09:53:38.424Z,4.25
2022-09-24T09:56:36.290Z,4.25
2022-09-24T09:59:27.353Z,4.63
2022-09-24T10:02:27.726Z,4.20
2022-09-24T10:05:26.448Z,4.15
2022-09-24T10:08:23.902Z,4.10
2022-09-24T10:11:15.873Z,4.78
2022-09-24T10:14:03.611Z,4.38
2022-09-24T10:16:54.624Z,4.53
2022-09-24T10:19:41.911Z,3.80
2022-09-24T10:22:28.785Z,4.88
2022-09-24T10:25:27.346Z,3.90
2022-09-24T10:28:38.715Z,4.05
2022-09-24T10:31:31.085Z,3.65
2022-09-24T10:34:29.064Z,3.70
2022-09-24T10:37:16.633Z,3.95
2022-09-24T13:05:40.998Z,3.95
2022-09-24T13:08:38.312Z,2.85
2022-09-24T13:11:26.235Z,3.30
2022-09-24T13:14:12.555Z,2.72
2022-09-24T13:16:58.551Z,3.20
2022-09-24T13:19:47.114Z,4.50
2022-09-24T13:22:35.503Z,5.38
2022-09-24T13:25:24.428Z,4.88
2022-09-24T13:28:37.913Z,4.32
2022-09-24T13:31:31.967Z,3.70
2022-09-24T13:34:22.083Z,3.85
2022-09-24T13:37:34.594Z,4.03
2022-09-24T13:40:25.034Z,4.18
2022-09-24T13:43:16.245Z,4.80
2022-09-24T13:46:05.296Z,4.00
2022-09-24T13:48:54.304Z,3.50
2022-09-24T13:51:41.844Z,3.03
2022-09-24T13:54:34.751Z,4.90
2022-09-24T13:57:24.490Z,4.75
2022-09-24T14:00:20.863Z,4.72
2022-09-24T14:03:26.151Z,3.38
2022-09-24T14:06:14.688Z,3.10
2022-09-24T14:09:01.219Z,3.42
2022-09-24T14:11:52.445Z,3.08
2022-09-24T14:38:04.556Z,3.33
2022-09-24T14:40:55.088Z,3.20
2022-09-24T14:43:46.424Z,3.10
2022-09-24T14:46:56.732Z,3.00
2022-09-24T14:49:45.444Z,2.58
2022-09-24T14:56:37.124Z,3.30
2022-09-24T14:59:31.089Z,3.30
2022-09-24T15:02:48.527Z,3.38
2022-09-24T15:05:34.955Z,2.72
2022-09-24T15:08:23.195Z,2.88
2022-09-24T15:11:16.880Z,2.92
2022-09-24T15:14:15.794Z,3.47
2022-09-24T15:17:22.626Z,3.20
2022-09-24T15:20:10.842Z,2.97
2022-09-24T15:22:56.613Z,3.72
2022-09-24T15:25:43.691Z,4.35
2022-09-24T15:28:29.600Z,3.90
2022-09-24T15:31:14.940Z,5.65
2022-09-24T15:34:00.206Z,5.32
2022-09-24T15:36:46.337Z,18.08
2022-09-24T15:39:32.065Z,11.27
2022-09-24T15:42:27.297Z,35.63
2022-09-24T15:45:22.993Z,20.67
2022-09-24T15:48:08.538Z,18.58
2022-09-24T15:50:54.944Z,10.45
2022-09-24T15:53:41.462Z,8.07
2022-09-24T15:56:28.192Z,6.22
2022-09-24T15:59:14.628Z,8.82
2022-09-24T16:02:03.903Z,19.55
2022-09-24T16:04:49.564Z,13.73
2022-09-24T16:07:35.176Z,8.10
2022-09-24T16:10:20.735Z,6.03
2022-09-24T16:13:07.226Z,11.30
2022-09-24T16:15:52.671Z,9.02
2022-09-24T16:18:39.835Z,12.38
2022-09-24T16:21:25.242Z,9.33
2022-09-24T16:24:10.537Z,9.52
2022-09-24T16:26:56.067Z,8.77
2022-09-24T16:29:41.747Z,7.00
2022-09-24T16:32:27.247Z,6.40
2022-09-24T16:35:13.310Z,15.07
2022-09-24T16:37:58.849Z,13.60
2022-09-24T16:40:44.518Z,71.97
2022-09-24T16:43:29.810Z,8.63
2022-09-24T16:46:20.188Z,42.83
2022-09-24T16:49:06.237Z,91.10
2022-09-24T16:51:51.474Z,35.55
2022-09-24T16:54:37.254Z,49.67
2022-09-24T16:57:22.829Z,18.73
2022-09-24T17:00:10.671Z,24.75
2022-09-24T17:02:56.605Z,12.45
2022-09-24T17:05:42.457Z,70.72
2022-09-24T17:08:47.950Z,82.88
2022-09-24T17:11:34.486Z,64.75
2022-09-24T17:14:20.726Z,18.30
2022-09-24T17:17:06.584Z,14.60
2022-09-24T17:19:51.993Z,11.88
2022-09-24T17:22:38.043Z,50.15
2022-09-24T17:25:24.010Z,23.67
2022-09-24T17:28:12.179Z,14.65
2022-09-24T17:30:57.630Z,16.30
2022-09-24T17:33:44.259Z,16.73
2022-09-24T17:36:31.415Z,15.23
2022-09-24T17:39:18.244Z,9.40
2022-09-24T17:42:03.896Z,8.15
2022-09-24T17:44:49.279Z,11.63
2022-09-24T17:47:54.740Z,8.23
2022-09-24T17:50:40.534Z,8.80
2022-09-24T17:53:29.487Z,8.52
2022-09-24T17:56:15.192Z,11.95
2022-09-24T17:59:00.919Z,7.80
2022-09-24T18:01:46.795Z,7.53
2022-09-24T18:04:35.651Z,10.93
2022-09-24T18:07:23.167Z,40.63
2022-09-24T18:10:09.200Z,10.57
2022-09-24T18:12:55.383Z,55.72
2022-09-24T18:15:42.396Z,18.70
2022-09-24T18:18:27.968Z,14.57
2022-09-24T18:21:14.112Z,10.38
2022-09-24T18:24:00.594Z,8.43
2022-09-24T18:26:51.353Z,8.85
2022-09-24T18:29:37.412Z,8.45
2022-09-24T18:32:24.001Z,8.63
2022-09-24T18:35:09.978Z,8.67
2022-09-24T18:37:55.484Z,15.32
2022-09-24T18:40:41.052Z,12.05
2022-09-24T18:43:26.633Z,11.05
2022-09-24T18:46:14.589Z,11.65
2022-09-24T18:49:00.684Z,12.75
2022-09-24T18:51:46.749Z,11.38
2022-09-24T18:54:32.326Z,12.13
2022-09-24T18:57:17.822Z,14.25
2022-09-24T19:00:03.330Z,16.63
2022-09-24T19:02:49.030Z,18.92
2022-09-24T19:05:34.897Z,10.60
2022-09-24T19:08:22.204Z,8.70
2022-09-24T19:11:10.957Z,8.05
2022-09-24T19:13:56.407Z,8.57
2022-09-24T19:16:42.040Z,8.90
2022-09-24T19:19:27.347Z,9.05
2022-09-24T19:22:12.554Z,10.60
2022-09-24T19:24:58.220Z,12.35
2022-09-24T19:27:44.256Z,16.08
2022-09-24T19:30:31.213Z,29.40
2022-09-24T19:33:17.058Z,19.95
2022-09-24T19:36:04.671Z,40.13
2022-09-24T19:38:50.887Z,24.27
2022-09-24T19:41:36.517Z,16.17
2022-09-24T19:44:22.026Z,13.07
2022-09-24T19:47:08.294Z,13.40
2022-09-24T19:49:53.500Z,12.40
2022-09-24T19:52:38.828Z,12.77
2022-09-24T19:55:28.373Z,13.35
2022-09-24T19:58:14.689Z,11.25
2022-09-24T20:01:02.059Z,12.50
2022-09-24T20:03:47.721Z,11.98
2022-09-24T20:06:34.967Z,13.13
2022-09-24T20:09:20.639Z,12.40
2022-09-24T20:12:06.189Z,12.73
2022-09-24T20:14:51.841Z,13.48
2022-09-24T20:17:37.179Z,15.45
2022-09-24T20:20:23.669Z,14.48
2022-09-24T20:23:10.715Z,25.70
2022-09-24T20:26:14.910Z,14.95
2022-09-24T20:29:01.475Z,14.50
2022-09-24T20:31:51.996Z,13.05
2022-09-24T20:34:37.946Z,13.00
2022-09-24T20:37:23.270Z,11.77
2022-09-24T20:40:09.977Z,11.13
2022-09-24T20:42:55.646Z,11.52
2022-09-24T20:45:41.398Z,11.30
2022-09-24T20:48:28.600Z,11.98
2022-09-24T20:51:18.297Z,17.70
2022-09-24T20:54:04.046Z,53.20
2022-09-24T20:56:49.513Z,17.58
2022-09-24T20:59:35.207Z,16.73
2022-09-24T21:02:21.068Z,11.55
2022-09-24T21:05:09.546Z,17.20
2022-09-24T21:07:55.201Z,15.20
2022-09-24T21:10:41.240Z,28.50
2022-09-24T21:13:26.954Z,18.52
2022-09-24T21:16:12.553Z,102.03
2022-09-24T21:19:00.476Z,92.13
2022-09-24T21:21:47.306Z,84.00
2022-09-24T21:24:32.654Z,49.63
2022-09-24T21:27:19.186Z,28.15
2022-09-24T21:30:05.097Z,12.55
2022-09-24T21:32:50.530Z,10.23
2022-09-24T21:35:35.782Z,11.68
2022-09-24T21:38:21.200Z,10.32
2022-09-24T21:41:08.432Z,27.70
2022-09-24T21:43:55.571Z,22.05
2022-09-24T21:46:41.903Z,25.20
2022-09-24T21:49:27.763Z,18.95
2022-09-24T21:52:13.381Z,21.23
2022-09-24T21:54:58.877Z,15.70
2022-09-24T21:57:44.435Z,14.27
2022-09-24T22:00:29.755Z,13.00
2022-09-24T22:03:15.315Z,12.20
2022-09-24T22:06:03.456Z,12.13
2022-09-24T22:08:49.209Z,13.32
2022-09-24T22:11:36.676Z,10.63
2022-09-24T22:17:08.524Z,11.10
2022-09-24T22:19:54.208Z,11.88
2022-09-24T22:22:39.404Z,14.07
2022-09-24T22:25:24.851Z,17.83
2022-09-24T22:28:10.227Z,11.48
2022-09-24T22:30:59.343Z,12.75
2022-09-24T22:34:04.394Z,14.48
2022-09-24T22:36:49.858Z,11.77
2022-09-24T22:39:35.569Z,14.07
2022-09-24T22:42:21.224Z,11.15
2022-09-24T22:45:08.161Z,9.55
2022-09-24T22:47:55.203Z,10.53
2022-09-24T22:50:40.597Z,10.57
2022-09-24T22:53:26.253Z,22.75
2022-09-24T22:56:14.649Z,18.58
2022-09-24T22:59:01.005Z,15.15
2022-09-24T23:01:46.640Z,21.08
2022-09-24T23:04:32.569Z,17.92
2022-09-24T23:07:17.913Z,18.48
2022-09-24T23:12:50.108Z,15.73
2022-09-24T23:15:36.161Z,15.23
2022-09-24T23:18:21.827Z,20.25
2022-09-24T23:21:10.777Z,20.20
2022-09-24T23:24:01.644Z,15.32
2022-09-24T23:26:47.795Z,22.60
2022-09-24T23:29:33.069Z,18.48
2022-09-24T23:32:19.283Z,22.15
2022-09-24T23:35:05.430Z,20.27
2022-09-24T23:37:50.882Z,18.55
2022-09-24T23:40:36.462Z,13.80
2022-09-24T23:43:21.942Z,15.45
2022-09-24T23:46:09.020Z,13.40
2022-09-24T23:48:55.218Z,12.40
2022-09-24T23:51:41.159Z,9.73
2022-09-24T23:54:28.328Z,10.88
2022-09-24T23:57:14.077Z,12.10
2022-09-24T23:59:59.618Z,17.55
